sensor_id;sensor_type;location;lat;lon;timestamp;pressure;altitude;pressure_sealevel;temperature;humidity
17635;BME280;8936;49.010;12.120;2023-04-22T00:00:12;97427.09;;;15.41;100.00
17635;BME280;8936;49.010;12.120;2023-04-22T00:02:38;97426.34;;;15.41;100.00
17635;BME280;8936;49.010;12.120;2023-04-22T00:05:05;97430.94;;;15.27;100.00
17635;BME280;8936;49.010;12.120;2023-04-22T00:07:32;97426.06;;;14.93;100.00
17635;BME280;8936;49.010;12.120;2023-04-22T00:09:58;97426.69;;;14.90;100.00
17635;BME280;8936;49.010;12.120;2023-04-22T00:12:26;97425.06;;;15.02;100.00
17635;BME280;8936;49.010;12.120;2023-04-22T00:14:52;97434.00;;;15.11;100.00
17635;BME280;8936;49.010;12.120;2023-04-22T00:17:18;97432.38;;;15.10;100.00
17635;BME280;8936;49.010;12.120;2023-04-22T00:19:45;97431.19;;;15.17;100.00
17635;BME280;8936;49.010;12.120;2023-04-22T00:22:11;97426.97;;;15.24;100.00
17635;BME280;8936;49.010;12.120;2023-04-22T00:24:38;97429.06;;;15.27;100.00
17635;BME280;8936;49.010;12.120;2023-04-22T00:27:04;97426.38;;;15.27;100.00
17635;BME280;8936;49.010;12.120;2023-04-22T00:29:33;97424.47;;;15.28;100.00
17635;BME280;8936;49.010;12.120;2023-04-22T00:31:59;97428.78;;;15.29;100.00
17635;BME280;8936;49.010;12.120;2023-04-22T00:34:26;97432.03;;;15.26;100.00
17635;BME280;8936;49.010;12.120;2023-04-22T00:36:52;97433.78;;;15.22;100.00
17635;BME280;8936;49.010;12.120;2023-04-22T00:39:19;97426.78;;;15.21;100.00
17635;BME280;8936;49.010;12.120;2023-04-22T00:41:45;97428.69;;;15.20;100.00
17635;BME280;8936;49.010;12.120;2023-04-22T00:44:11;97430.28;;;15.21;100.00
17635;BME280;8936;49.010;12.120;2023-04-22T00:46:39;97437.69;;;15.16;100.00
17635;BME280;8936;49.010;12.120;2023-04-22T00:49:06;97436.56;;;15.17;100.00
17635;BME280;8936;49.010;12.120;2023-04-22T00:51:32;97437.34;;;15.17;100.00
17635;BME280;8936;49.010;12.120;2023-04-22T00:53:58;97443.19;;;14.97;100.00
17635;BME280;8936;49.010;12.120;2023-04-22T00:56:26;97446.59;;;14.89;100.00
17635;BME280;8936;49.010;12.120;2023-04-22T00:58:53;97447.91;;;14.91;100.00
17635;BME280;8936;49.010;12.120;2023-04-22T01:01:20;97447.28;;;14.94;100.00
17635;BME280;8936;49.010;12.120;2023-04-22T01:03:48;97445.09;;;14.96;100.00
17635;BME280;8936;49.010;12.120;2023-04-22T01:06:15;97450.34;;;15.01;100.00
17635;BME280;8936;49.010;12.120;2023-04-22T01:08:42;97454.16;;;15.00;100.00
17635;BME280;8936;49.010;12.120;2023-04-22T01:11:08;97446.78;;;14.92;100.00
17635;BME280;8936;49.010;12.120;2023-04-22T01:13:34;97443.41;;;15.00;100.00
17635;BME280;8936;49.010;12.120;2023-04-22T01:16:02;97453.34;;;15.00;100.00
17635;BME280;8936;49.010;12.120;2023-04-22T01:18:32;97458.66;;;14.91;100.00
17635;BME280;8936;49.010;12.120;2023-04-22T01:21:01;97455.38;;;14.81;100.00
17635;BME280;8936;49.010;12.120;2023-04-22T01:23:29;97447.03;;;14.82;100.00
17635;BME280;8936;49.010;12.120;2023-04-22T01:25:55;97460.03;;;14.89;100.00
17635;BME280;8936;49.010;12.120;2023-04-22T01:28:22;97438.03;;;14.87;100.00
17635;BME280;8936;49.010;12.120;2023-04-22T01:30:49;97457.66;;;14.87;100.00
17635;BME280;8936;49.010;12.120;2023-04-22T01:33:16;97456.78;;;14.78;100.00
17635;BME280;8936;49.010;12.120;2023-04-22T01:35:43;97455.78;;;14.47;100.00
17635;BME280;8936;49.010;12.120;2023-04-22T01:38:10;97452.09;;;13.83;100.00
17635;BME280;8936;49.010;12.120;2023-04-22T01:40:38;97457.81;;;13.63;100.00
17635;BME280;8936;49.010;12.120;2023-04-22T01:43:05;97456.03;;;13.72;100.00
17635;BME280;8936;49.010;12.120;2023-04-22T01:45:31;97461.88;;;13.61;100.00
17635;BME280;8936;49.010;12.120;2023-04-22T01:47:58;97448.56;;;13.69;100.00
17635;BME280;8936;49.010;12.120;2023-04-22T01:50:24;97456.69;;;13.96;100.00
17635;BME280;8936;49.010;12.120;2023-04-22T01:52:50;97458.91;;;14.08;100.00
17635;BME280;8936;49.010;12.120;2023-04-22T01:55:17;97455.75;;;14.20;100.00
17635;BME280;8936;49.010;12.120;2023-04-22T01:57:44;97453.38;;;14.32;100.00
17635;BME280;8936;49.010;12.120;2023-04-22T02:00:11;97453.28;;;14.37;100.00
17635;BME280;8936;49.010;12.120;2023-04-22T02:02:38;97450.34;;;14.06;100.00
17635;BME280;8936;49.010;12.120;2023-04-22T02:05:05;97453.94;;;14.15;100.00
17635;BME280;8936;49.010;12.120;2023-04-22T02:07:31;97462.50;;;14.31;100.00
17635;BME280;8936;49.010;12.120;2023-04-22T02:09:58;97461.06;;;14.38;100.00
17635;BME280;8936;49.010;12.120;2023-04-22T02:12:25;97455.06;;;14.28;100.00
17635;BME280;8936;49.010;12.120;2023-04-22T02:14:53;97466.28;;;14.30;100.00
17635;BME280;8936;49.010;12.120;2023-04-22T02:17:19;97458.66;;;14.37;100.00
17635;BME280;8936;49.010;12.120;2023-04-22T02:19:46;97459.03;;;14.30;100.00
17635;BME280;8936;49.010;12.120;2023-04-22T02:22:12;97448.59;;;14.29;100.00
17635;BME280;8936;49.010;12.120;2023-04-22T02:24:39;97454.41;;;14.36;100.00
17635;BME280;8936;49.010;12.120;2023-04-22T02:27:05;97449.41;;;14.43;100.00
17635;BME280;8936;49.010;12.120;2023-04-22T02:29:32;97445.53;;;14.49;100.00
17635;BME280;8936;49.010;12.120;2023-04-22T02:32:00;97446.53;;;14.53;100.00
17635;BME280;8936;49.010;12.120;2023-04-22T02:34:27;97441.44;;;14.51;100.00
17635;BME280;8936;49.010;12.120;2023-04-22T02:36:53;97450.31;;;14.52;100.00
17635;BME280;8936;49.010;12.120;2023-04-22T02:39:20;97438.84;;;14.19;100.00
17635;BME280;8936;49.010;12.120;2023-04-22T02:41:46;97440.22;;;14.17;100.00
17635;BME280;8936;49.010;12.120;2023-04-22T02:44:12;97441.63;;;14.28;100.00
17635;BME280;8936;49.010;12.120;2023-04-22T02:46:39;97443.44;;;14.32;100.00
17635;BME280;8936;49.010;12.120;2023-04-22T02:49:06;97452.41;;;14.41;100.00
17635;BME280;8936;49.010;12.120;2023-04-22T02:51:33;97448.72;;;14.37;100.00
17635;BME280;8936;49.010;12.120;2023-04-22T02:53:59;97451.19;;;14.34;100.00
17635;BME280;8936;49.010;12.120;2023-04-22T02:56:25;97447.19;;;14.31;100.00
17635;BME280;8936;49.010;12.120;2023-04-22T02:58:52;97448.81;;;14.32;100.00
17635;BME280;8936;49.010;12.120;2023-04-22T03:01:18;97445.84;;;14.34;100.00
17635;BME280;8936;49.010;12.120;2023-04-22T03:03:44;97444.50;;;14.31;100.00
17635;BME280;8936;49.010;12.120;2023-04-22T03:06:12;97445.59;;;14.30;100.00
17635;BME280;8936;49.010;12.120;2023-04-22T03:08:38;97444.31;;;14.28;100.00
17635;BME280;8936;49.010;12.120;2023-04-22T03:11:05;97451.56;;;14.27;100.00
17635;BME280;8936;49.010;12.120;2023-04-22T03:13:31;97445.50;;;14.22;100.00
17635;BME280;8936;49.010;12.120;2023-04-22T03:15:57;97442.34;;;13.87;100.00
17635;BME280;8936;49.010;12.120;2023-04-22T03:18:24;97451.09;;;13.79;100.00
17635;BME280;8936;49.010;12.120;2023-04-22T03:20:50;97443.97;;;13.88;100.00
17635;BME280;8936;49.010;12.120;2023-04-22T03:23:18;97448.16;;;13.94;100.00
17635;BME280;8936;49.010;12.120;2023-04-22T03:25:44;97439.50;;;13.97;100.00
17635;BME280;8936;49.010;12.120;2023-04-22T03:28:10;97446.72;;;13.83;100.00
17635;BME280;8936;49.010;12.120;2023-04-22T03:30:37;97442.06;;;13.89;100.00
17635;BME280;8936;49.010;12.120;2023-04-22T03:33:03;97437.31;;;13.86;100.00
17635;BME280;8936;49.010;12.120;2023-04-22T03:35:30;97443.06;;;13.93;100.00
17635;BME280;8936;49.010;12.120;2023-04-22T03:37:56;97442.16;;;13.84;100.00
17635;BME280;8936;49.010;12.120;2023-04-22T03:40:24;97434.94;;;13.66;100.00
17635;BME280;8936;49.010;12.120;2023-04-22T03:42:50;97445.16;;;13.13;100.00
17635;BME280;8936;49.010;12.120;2023-04-22T03:45:17;97439.63;;;13.04;100.00
17635;BME280;8936;49.010;12.120;2023-04-22T03:47:43;97445.84;;;12.81;100.00
17635;BME280;8936;49.010;12.120;2023-04-22T03:50:09;97451.19;;;12.62;100.00
17635;BME280;8936;49.010;12.120;2023-04-22T03:52:36;97451.13;;;12.86;100.00
17635;BME280;8936;49.010;12.120;2023-04-22T03:55:02;97454.81;;;13.14;100.00
17635;BME280;8936;49.010;12.120;2023-04-22T03:57:30;97445.38;;;13.35;100.00
17635;BME280;8936;49.010;12.120;2023-04-22T03:59:56;97453.19;;;13.50;100.00
17635;BME280;8936;49.010;12.120;2023-04-22T04:02:23;97454.84;;;13.65;100.00
17635;BME280;8936;49.010;12.120;2023-04-22T04:04:49;97452.56;;;13.72;100.00
17635;BME280;8936;49.010;12.120;2023-04-22T04:07:15;97453.78;;;13.79;100.00
17635;BME280;8936;49.010;12.120;2023-04-22T04:09:42;97451.47;;;13.73;100.00
17635;BME280;8936;49.010;12.120;2023-04-22T04:12:08;97450.25;;;13.65;100.00
17635;BME280;8936;49.010;12.120;2023-04-22T04:14:36;97440.91;;;13.63;100.00
17635;BME280;8936;49.010;12.120;2023-04-22T04:17:02;97447.56;;;13.65;100.00
17635;BME280;8936;49.010;12.120;2023-04-22T04:19:29;97451.25;;;13.69;100.00
17635;BME280;8936;49.010;12.120;2023-04-22T04:21:55;97449.38;;;13.70;100.00
17635;BME280;8936;49.010;12.120;2023-04-22T04:24:22;97444.28;;;13.68;100.00
17635;BME280;8936;49.010;12.120;2023-04-22T04:26:48;97451.84;;;13.66;100.00
17635;BME280;8936;49.010;12.120;2023-04-22T04:29:15;97449.16;;;13.66;100.00
17635;BME280;8936;49.010;12.120;2023-04-22T04:31:45;97449.16;;;13.66;100.00
17635;BME280;8936;49.010;12.120;2023-04-22T04:34:11;97457.53;;;13.65;100.00
17635;BME280;8936;49.010;12.120;2023-04-22T04:36:38;97455.91;;;13.64;100.00
17635;BME280;8936;49.010;12.120;2023-04-22T04:39:04;97457.81;;;13.63;100.00
17635;BME280;8936;49.010;12.120;2023-04-22T04:41:30;97462.69;;;13.61;100.00
17635;BME280;8936;49.010;12.120;2023-04-22T04:43:57;97448.09;;;13.67;100.00
17635;BME280;8936;49.010;12.120;2023-04-22T04:46:24;97459.41;;;13.64;100.00
17635;BME280;8936;49.010;12.120;2023-04-22T04:48:54;97455.13;;;13.63;100.00
17635;BME280;8936;49.010;12.120;2023-04-22T04:51:21;97458.28;;;13.65;100.00
17635;BME280;8936;49.010;12.120;2023-04-22T04:53:47;97462.88;;;13.65;100.00
17635;BME280;8936;49.010;12.120;2023-04-22T04:56:14;97459.41;;;13.64;100.00
17635;BME280;8936;49.010;12.120;2023-04-22T04:58:40;97466.34;;;13.65;100.00
17635;BME280;8936;49.010;12.120;2023-04-22T05:01:07;97457.31;;;13.61;100.00
17635;BME280;8936;49.010;12.120;2023-04-22T05:03:33;97468.81;;;13.62;100.00
17635;BME280;8936;49.010;12.120;2023-04-22T05:06:01;97457.31;;;13.61;100.00
17635;BME280;8936;49.010;12.120;2023-04-22T05:08:28;97463.44;;;13.62;100.00
17635;BME280;8936;49.010;12.120;2023-04-22T05:10:54;97464.34;;;13.57;100.00
17635;BME280;8936;49.010;12.120;2023-04-22T05:13:20;97467.97;;;13.47;100.00
17635;BME280;8936;49.010;12.120;2023-04-22T05:15:47;97465.44;;;13.19;100.00
17635;BME280;8936;49.010;12.120;2023-04-22T05:18:13;97459.81;;;13.20;100.00
17635;BME280;8936;49.010;12.120;2023-04-22T05:20:40;97472.84;;;13.08;100.00
17635;BME280;8936;49.010;12.120;2023-04-22T05:23:07;97462.94;;;12.85;100.00
17635;BME280;8936;49.010;12.120;2023-04-22T05:25:34;97471.06;;;12.98;100.00
17635;BME280;8936;49.010;12.120;2023-04-22T05:28:00;97462.34;;;13.12;100.00
17635;BME280;8936;49.010;12.120;2023-04-22T05:30:27;97464.56;;;13.05;100.00
17635;BME280;8936;49.010;12.120;2023-04-22T05:32:53;97472.28;;;12.87;100.00
17635;BME280;8936;49.010;12.120;2023-04-22T05:35:19;97469.38;;;12.65;100.00
17635;BME280;8936;49.010;12.120;2023-04-22T05:37:46;97476.91;;;12.82;100.00
17635;BME280;8936;49.010;12.120;2023-04-22T05:40:13;97472.03;;;12.65;100.00
17635;BME280;8936;49.010;12.120;2023-04-22T05:42:40;97462.63;;;12.44;100.00
17635;BME280;8936;49.010;12.120;2023-04-22T05:45:06;97471.50;;;12.63;100.00
17635;BME280;8936;49.010;12.120;2023-04-22T05:47:33;97471.31;;;12.78;100.00
17635;BME280;8936;49.010;12.120;2023-04-22T05:49:59;97464.25;;;13.06;100.00
17635;BME280;8936;49.010;12.120;2023-04-22T05:52:26;97465.63;;;13.09;100.00
17635;BME280;8936;49.010;12.120;2023-04-22T05:54:52;97465.06;;;13.44;100.00
17635;BME280;8936;49.010;12.120;2023-04-22T05:57:20;97468.91;;;13.57;100.00
17635;BME280;8936;49.010;12.120;2023-04-22T05:59:46;97467.41;;;13.83;100.00
17635;BME280;8936;49.010;12.120;2023-04-22T06:02:12;97467.84;;;14.03;100.00
17635;BME280;8936;49.010;12.120;2023-04-22T06:04:39;97469.97;;;14.20;100.00
17635;BME280;8936;49.010;12.120;2023-04-22T06:07:05;97474.38;;;14.43;100.00
17635;BME280;8936;49.010;12.120;2023-04-22T06:09:32;97468.31;;;14.65;100.00
17635;BME280;8936;49.010;12.120;2023-04-22T06:11:58;97476.78;;;14.72;100.00
17635;BME280;8936;49.010;12.120;2023-04-22T06:14:27;97468.69;;;14.86;100.00
17635;BME280;8936;49.010;12.120;2023-04-22T06:16:53;97472.09;;;14.91;100.00
17635;BME280;8936;49.010;12.120;2023-04-22T06:19:21;97479.84;;;15.06;100.00
17635;BME280;8936;49.010;12.120;2023-04-22T06:21:47;97484.28;;;15.25;100.00
17635;BME280;8936;49.010;12.120;2023-04-22T06:24:14;97484.72;;;15.40;100.00
17635;BME280;8936;49.010;12.120;2023-04-22T06:26:40;97487.09;;;15.55;100.00
17635;BME280;8936;49.010;12.120;2023-04-22T06:29:06;97487.81;;;15.70;100.00
17635;BME280;8936;49.010;12.120;2023-04-22T06:31:34;97492.41;;;15.69;100.00
17635;BME280;8936;49.010;12.120;2023-04-22T06:34:00;97498.53;;;15.83;100.00
17635;BME280;8936;49.010;12.120;2023-04-22T06:36:27;97493.69;;;15.94;100.00
17635;BME280;8936;49.010;12.120;2023-04-22T06:38:53;97486.41;;;15.72;100.00
17635;BME280;8936;49.010;12.120;2023-04-22T06:41:20;97493.16;;;15.83;100.00
17635;BME280;8936;49.010;12.120;2023-04-22T06:43:46;97501.16;;;15.97;100.00
17635;BME280;8936;49.010;12.120;2023-04-22T06:46:14;97501.84;;;16.02;100.00
17635;BME280;8936;49.010;12.120;2023-04-22T06:48:42;97506.09;;;15.23;100.00
17635;BME280;8936;49.010;12.120;2023-04-22T06:51:08;97502.28;;;14.88;100.00
17635;BME280;8936;49.010;12.120;2023-04-22T06:53:35;97505.66;;;14.67;100.00
17635;BME280;8936;49.010;12.120;2023-04-22T06:56:01;97503.75;;;14.40;100.00
17635;BME280;8936;49.010;12.120;2023-04-22T06:58:27;97501.31;;;14.25;100.00
17635;BME280;8936;49.010;12.120;2023-04-22T07:00:54;97506.53;;;14.02;100.00
17635;BME280;8936;49.010;12.120;2023-04-22T07:03:20;97507.66;;;14.15;100.00
17635;BME280;8936;49.010;12.120;2023-04-22T07:05:48;97498.03;;;14.28;100.00
17635;BME280;8936;49.010;12.120;2023-04-22T07:08:14;97504.16;;;14.15;100.00
17635;BME280;8936;49.010;12.120;2023-04-22T07:10:41;97506.72;;;14.06;100.00
17635;BME280;8936;49.010;12.120;2023-04-22T07:13:07;97496.38;;;13.99;100.00
17635;BME280;8936;49.010;12.120;2023-04-22T07:15:33;97499.69;;;14.24;100.00
17635;BME280;8936;49.010;12.120;2023-04-22T07:18:00;97505.66;;;14.21;100.00
17635;BME280;8936;49.010;12.120;2023-04-22T07:20:26;97491.31;;;14.12;100.00
17635;BME280;8936;49.010;12.120;2023-04-22T07:22:54;97495.13;;;14.11;100.00
17635;BME280;8936;49.010;12.120;2023-04-22T07:25:20;97503.50;;;14.23;100.00
17635;BME280;8936;49.010;12.120;2023-04-22T07:27:46;97497.53;;;14.26;100.00
17635;BME280;8936;49.010;12.120;2023-04-22T07:30:13;97490.91;;;14.37;100.00
17635;BME280;8936;49.010;12.120;2023-04-22T07:32:39;97497.94;;;14.33;100.00
17635;BME280;8936;49.010;12.120;2023-04-22T07:35:06;97489.81;;;14.05;100.00
17635;BME280;8936;49.010;12.120;2023-04-22T07:37:32;97484.91;;;14.26;100.00
17635;BME280;8936;49.010;12.120;2023-04-22T07:40:00;97483.97;;;14.36;100.00
17635;BME280;8936;49.010;12.120;2023-04-22T07:42:26;97487.44;;;14.50;100.00
17635;BME280;8936;49.010;12.120;2023-04-22T07:44:53;97475.91;;;14.36;100.00
17635;BME280;8936;49.010;12.120;2023-04-22T07:47:19;97486.84;;;14.53;100.00
17635;BME280;8936;49.010;12.120;2023-04-22T07:49:45;97485.25;;;14.66;100.00
17635;BME280;8936;49.010;12.120;2023-04-22T07:52:12;97483.97;;;14.63;100.00
17635;BME280;8936;49.010;12.120;2023-04-22T07:54:38;97476.38;;;14.65;100.00
17635;BME280;8936;49.010;12.120;2023-04-22T07:57:06;97480.56;;;14.85;100.00
17635;BME280;8936;49.010;12.120;2023-04-22T07:59:32;97474.38;;;14.84;100.00
17635;BME280;8936;49.010;12.120;2023-04-22T08:01:59;97474.53;;;15.01;100.00
17635;BME280;8936;49.010;12.120;2023-04-22T08:04:25;97469.56;;;15.08;100.00
17635;BME280;8936;49.010;12.120;2023-04-22T08:06:51;97475.63;;;15.14;100.00
17635;BME280;8936;49.010;12.120;2023-04-22T08:09:18;97478.50;;;15.18;100.00
17635;BME280;8936;49.010;12.120;2023-04-22T08:11:45;97469.81;;;15.21;100.00
17635;BME280;8936;49.010;12.120;2023-04-22T08:14:12;97468.84;;;15.17;100.00
17635;BME280;8936;49.010;12.120;2023-04-22T08:16:40;97463.84;;;15.24;100.00
17635;BME280;8936;49.010;12.120;2023-04-22T08:19:06;97459.94;;;15.30;100.00
17635;BME280;8936;49.010;12.120;2023-04-22T08:21:33;97466.50;;;15.37;100.00
17635;BME280;8936;49.010;12.120;2023-04-22T08:24:01;97467.16;;;15.43;100.00
17635;BME280;8936;49.010;12.120;2023-04-22T08:26:27;97461.97;;;15.46;100.00
17635;BME280;8936;49.010;12.120;2023-04-22T08:28:53;97480.72;;;15.51;100.00
17635;BME280;8936;49.010;12.120;2023-04-22T08:31:21;97474.19;;;15.66;100.00
17635;BME280;8936;49.010;12.120;2023-04-22T08:33:48;97475.72;;;15.58;100.00
17635;BME280;8936;49.010;12.120;2023-04-22T08:36:14;97476.94;;;15.52;100.00
17635;BME280;8936;49.010;12.120;2023-04-22T08:38:41;97473.81;;;15.59;100.00
17635;BME280;8936;49.010;12.120;2023-04-22T08:41:07;97479.47;;;15.71;100.00
17635;BME280;8936;49.010;12.120;2023-04-22T08:43:34;97480.91;;;15.77;100.00
17635;BME280;8936;49.010;12.120;2023-04-22T08:46:01;97489.38;;;15.84;100.00
17635;BME280;8936;49.010;12.120;2023-04-22T08:48:29;97481.16;;;15.89;100.00
17635;BME280;8936;49.010;12.120;2023-04-22T08:50:55;97484.75;;;15.85;100.00
17635;BME280;8936;49.010;12.120;2023-04-22T08:53:22;97477.47;;;15.85;100.00
17635;BME280;8936;49.010;12.120;2023-04-22T08:55:49;97465.81;;;15.90;100.00
17635;BME280;8936;49.010;12.120;2023-04-22T08:58:15;97469.69;;;16.06;100.00
17635;BME280;8936;49.010;12.120;2023-04-22T09:00:42;97463.84;;;16.12;100.00
17635;BME280;8936;49.010;12.120;2023-04-22T09:03:08;97471.81;;;16.17;100.00
17635;BME280;8936;49.010;12.120;2023-04-22T09:05:37;97468.69;;;16.24;100.00
17635;BME280;8936;49.010;12.120;2023-04-22T09:08:04;97470.41;;;16.20;100.00
17635;BME280;8936;49.010;12.120;2023-04-22T09:10:31;97460.78;;;16.28;100.00
17635;BME280;8936;49.010;12.120;2023-04-22T09:12:58;97461.56;;;16.28;100.00
17635;BME280;8936;49.010;12.120;2023-04-22T09:15:25;97458.94;;;16.45;100.00
17635;BME280;8936;49.010;12.120;2023-04-22T09:17:51;97456.78;;;16.56;98.99
17635;BME280;8936;49.010;12.120;2023-04-22T09:20:18;97456.66;;;16.69;96.99
17635;BME280;8936;49.010;12.120;2023-04-22T09:22:46;97463.22;;;16.77;97.13
17635;BME280;8936;49.010;12.120;2023-04-22T09:25:16;97443.53;;;16.77;99.39
17635;BME280;8936;49.010;12.120;2023-04-22T09:27:42;97442.56;;;16.81;95.66
17635;BME280;8936;49.010;12.120;2023-04-22T09:30:13;97448.59;;;16.87;94.19
17635;BME280;8936;49.010;12.120;2023-04-22T09:32:39;97443.25;;;16.95;93.79
17635;BME280;8936;49.010;12.120;2023-04-22T09:35:05;97448.31;;;17.05;92.13
17635;BME280;8936;49.010;12.120;2023-04-22T09:37:32;97449.28;;;17.01;92.38
17635;BME280;8936;49.010;12.120;2023-04-22T09:40:00;97452.00;;;17.09;93.17
17635;BME280;8936;49.010;12.120;2023-04-22T09:42:26;97455.50;;;17.10;90.57
17635;BME280;8936;49.010;12.120;2023-04-22T09:44:52;97458.66;;;17.12;91.10
17635;BME280;8936;49.010;12.120;2023-04-22T09:47:19;97449.63;;;17.16;89.08
17635;BME280;8936;49.010;12.120;2023-04-22T09:49:48;97452.78;;;17.01;90.50
17635;BME280;8936;49.010;12.120;2023-04-22T09:52:21;97441.50;;;16.99;92.77
17635;BME280;8936;49.010;12.120;2023-04-22T09:54:51;97456.41;;;16.97;93.50
17635;BME280;8936;49.010;12.120;2023-04-22T09:57:19;97446.75;;;17.04;92.93
17635;BME280;8936;49.010;12.120;2023-04-22T09:59:45;97444.06;;;17.13;94.68
17635;BME280;8936;49.010;12.120;2023-04-22T10:02:12;97451.84;;;17.23;94.60
17635;BME280;8936;49.010;12.120;2023-04-22T10:04:39;97440.09;;;17.27;94.68
17635;BME280;8936;49.010;12.120;2023-04-22T10:07:06;97440.56;;;17.21;95.71
17635;BME280;8936;49.010;12.120;2023-04-22T10:09:33;97442.63;;;17.24;95.30
17635;BME280;8936;49.010;12.120;2023-04-22T10:11:59;97432.47;;;17.12;95.47
17635;BME280;8936;49.010;12.120;2023-04-22T10:14:28;97424.25;;;17.17;95.92
17635;BME280;8936;49.010;12.120;2023-04-22T10:16:55;97430.09;;;17.28;97.85
17635;BME280;8936;49.010;12.120;2023-04-22T10:19:22;97427.25;;;17.50;97.02
17635;BME280;8936;49.010;12.120;2023-04-22T10:21:51;97422.81;;;17.63;95.81
17635;BME280;8936;49.010;12.120;2023-04-22T10:24:19;97424.56;;;17.59;93.01
17635;BME280;8936;49.010;12.120;2023-04-22T10:26:49;97419.63;;;17.69;92.52
17635;BME280;8936;49.010;12.120;2023-04-22T10:29:16;97421.19;;;17.88;91.28
17635;BME280;8936;49.010;12.120;2023-04-22T10:31:44;97416.84;;;17.95;91.08
17635;BME280;8936;49.010;12.120;2023-04-22T10:34:11;97407.69;;;17.70;90.94
17635;BME280;8936;49.010;12.120;2023-04-22T10:36:53;97415.94;;;17.91;88.43
17635;BME280;8936;49.010;12.120;2023-04-22T10:39:20;97408.75;;;17.95;88.26
17635;BME280;8936;49.010;12.120;2023-04-22T10:41:51;97399.50;;;18.05;87.93
17635;BME280;8936;49.010;12.120;2023-04-22T10:44:18;97400.91;;;18.19;87.97
17635;BME280;8936;49.010;12.120;2023-04-22T10:47:01;97399.69;;;18.38;85.02
17635;BME280;8936;49.010;12.120;2023-04-22T10:49:30;97398.69;;;18.51;82.51
17635;BME280;8936;49.010;12.120;2023-04-22T10:51:57;97398.41;;;18.44;77.13
17635;BME280;8936;49.010;12.120;2023-04-22T10:57:09;97393.75;;;18.53;79.73
17635;BME280;8936;49.010;12.120;2023-04-22T10:59:40;97392.09;;;18.31;83.86
17635;BME280;8936;49.010;12.120;2023-04-22T11:02:08;97399.47;;;18.60;79.66
17635;BME280;8936;49.010;12.120;2023-04-22T11:04:36;97391.53;;;18.55;78.42
17635;BME280;8936;49.010;12.120;2023-04-22T11:07:12;97399.06;;;18.70;77.03
17635;BME280;8936;49.010;12.120;2023-04-22T11:09:39;97399.84;;;18.70;73.41
17635;BME280;8936;49.010;12.120;2023-04-22T11:15:04;97388.66;;;19.01;73.63
17635;BME280;8936;49.010;12.120;2023-04-22T11:17:34;97378.78;;;19.05;74.48
17635;BME280;8936;49.010;12.120;2023-04-22T11:20:01;97392.97;;;19.23;75.25
17635;BME280;8936;49.010;12.120;2023-04-22T11:22:29;97389.59;;;19.26;66.94
17635;BME280;8936;49.010;12.120;2023-04-22T11:24:59;97392.78;;;19.28;67.77
17635;BME280;8936;49.010;12.120;2023-04-22T11:27:26;97381.59;;;19.29;67.96
17635;BME280;8936;49.010;12.120;2023-04-22T11:30:00;97375.91;;;19.22;66.23
17635;BME280;8936;49.010;12.120;2023-04-22T11:32:26;97369.38;;;19.44;64.14
17635;BME280;8936;49.010;12.120;2023-04-22T11:34:54;97384.97;;;19.47;65.35
17635;BME280;8936;49.010;12.120;2023-04-22T11:37:21;97374.94;;;19.27;66.24
17635;BME280;8936;49.010;12.120;2023-04-22T11:39:47;97369.53;;;19.06;69.98
17635;BME280;8936;49.010;12.120;2023-04-22T11:42:15;97356.38;;;19.17;71.52
17635;BME280;8936;49.010;12.120;2023-04-22T11:44:45;97357.03;;;19.34;67.79
17635;BME280;8936;49.010;12.120;2023-04-22T11:47:11;97362.97;;;19.49;66.31
17635;BME280;8936;49.010;12.120;2023-04-22T11:49:37;97349.47;;;19.61;63.63
17635;BME280;8936;49.010;12.120;2023-04-22T11:52:05;97358.81;;;19.51;65.32
17635;BME280;8936;49.010;12.120;2023-04-22T11:54:32;97351.06;;;19.62;61.11
17635;BME280;8936;49.010;12.120;2023-04-22T11:57:00;97336.63;;;19.70;60.31
17635;BME280;8936;49.010;12.120;2023-04-22T11:59:27;97340.78;;;19.55;63.05
17635;BME280;8936;49.010;12.120;2023-04-22T12:01:53;97350.63;;;19.72;61.67
17635;BME280;8936;49.010;12.120;2023-04-22T12:04:20;97348.41;;;19.98;60.10
17635;BME280;8936;49.010;12.120;2023-04-22T12:06:46;97338.25;;;19.83;57.29
17635;BME280;8936;49.010;12.120;2023-04-22T12:09:14;97338.53;;;20.26;57.20
17635;BME280;8936;49.010;12.120;2023-04-22T12:11:40;97340.75;;;20.12;58.30
17635;BME280;8936;49.010;12.120;2023-04-22T12:14:07;97337.50;;;20.31;57.91
17635;BME280;8936;49.010;12.120;2023-04-22T12:16:38;97337.34;;;20.03;59.93
17635;BME280;8936;49.010;12.120;2023-04-22T12:19:05;97334.66;;;20.15;61.75
17635;BME280;8936;49.010;12.120;2023-04-22T12:21:31;97340.69;;;20.33;59.50
17635;BME280;8936;49.010;12.120;2023-04-22T12:23:58;97341.41;;;20.21;57.68
17635;BME280;8936;49.010;12.120;2023-04-22T12:26:26;97340.09;;;20.27;57.47
17635;BME280;8936;49.010;12.120;2023-04-22T12:28:53;97343.28;;;20.29;58.02
17635;BME280;8936;49.010;12.120;2023-04-22T12:31:19;97338.50;;;20.14;59.52
17635;BME280;8936;49.010;12.120;2023-04-22T12:33:46;97341.44;;;20.58;57.37
17635;BME280;8936;49.010;12.120;2023-04-22T12:36:12;97339.97;;;20.60;57.22
17635;BME280;8936;49.010;12.120;2023-04-22T12:38:39;97334.22;;;20.50;58.82
17635;BME280;8936;49.010;12.120;2023-04-22T12:41:06;97329.13;;;20.48;58.29
17635;BME280;8936;49.010;12.120;2023-04-22T12:43:33;97333.19;;;20.54;58.00
17635;BME280;8936;49.010;12.120;2023-04-22T12:46:00;97320.63;;;20.62;55.62
17635;BME280;8936;49.010;12.120;2023-04-22T12:48:27;97325.72;;;20.63;57.97
17635;BME280;8936;49.010;12.120;2023-04-22T12:50:53;97334.09;;;20.70;58.31
17635;BME280;8936;49.010;12.120;2023-04-22T12:53:21;97324.72;;;20.43;58.97
17635;BME280;8936;49.010;12.120;2023-04-22T12:55:47;97317.94;;;20.13;61.69